Time;durP1;ratioP1;P1;durP2;ratioP2;P2;SDS_P1;SDS_P2;PMS_P1;PMS_P2;Temp;Humidity;BMP_temperature;BMP_pressure;BME280_temperature;BME280_humidity;BME280_pressure;Samples;Min_cycle;Max_cycle;Signal;HPM_P1;HPM_P2
2022/01/15 00:00:36;;;;;;;0.90;0.60;;;;;;;;;;4973540;28;20545;-74
2022/01/15 00:03:02;;;;;;;1.52;0.70;;;;;;;;;;4973496;28;20043;-74
2022/01/15 00:05:30;;;;;;;2.67;0.73;;;;;;;;;;4973303;28;20046;-74
2022/01/15 00:07:57;;;;;;;2.80;0.80;;;;;;;;;;4973079;28;20058;-73
2022/01/15 00:10:26;;;;;;;2.78;0.68;;;;;;;;;;4973069;28;20485;-73
2022/01/15 00:12:53;;;;;;;1.17;0.60;;;;;;;;;;4972800;28;20057;-73
2022/01/15 00:15:25;;;;;;;1.50;0.93;;;;;;;;;;4972914;28;20469;-74
2022/01/15 00:18:05;;;;;;;1.55;0.70;;;;;;;;;;4973203;28;20047;-73
2022/01/15 00:20:31;;;;;;;1.70;0.77;;;;;;;;;;4973094;28;20086;-73
2022/01/15 00:22:58;;;;;;;0.93;0.60;;;;;;;;;;4972766;28;20046;-73
2022/01/15 00:25:25;;;;;;;1.23;0.70;;;;;;;;;;4972926;28;20413;-73
2022/01/15 00:27:52;;;;;;;1.73;0.70;;;;;;;;;;4971181;28;20055;-73
2022/01/15 00:30:18;;;;;;;1.83;0.70;;;;;;;;;;4972819;28;20051;-72
2022/01/15 00:32:45;;;;;;;1.00;0.60;;;;;;;;;;4973082;28;20049;-72
2022/01/15 00:35:13;;;;;;;2.63;0.70;;;;;;;;;;4972664;28;20049;-73
2022/01/15 00:37:39;;;;;;;1.40;0.60;;;;;;;;;;4970729;28;20051;-72
2022/01/15 00:40:07;;;;;;;0.98;0.57;;;;;;;;;;4972656;28;20051;-73
2022/01/15 00:42:35;;;;;;;1.73;0.60;;;;;;;;;;4972710;28;20460;-74
2022/01/15 00:45:02;;;;;;;2.90;0.82;;;;;;;;;;4972564;28;20089;-73
2022/01/15 00:47:31;;;;;;;9.25;1.00;;;;;;;;;;4972288;28;20469;-73
2022/01/15 00:49:58;;;;;;;1.67;0.60;;;;;;;;;;4972149;28;20081;-74
2022/01/15 00:52:24;;;;;;;3.83;0.77;;;;;;;;;;4972649;28;20054;-73
2022/01/15 00:54:50;;;;;;;1.83;0.47;;;;;;;;;;4972425;28;20053;-73
2022/01/15 00:57:16;;;;;;;3.10;0.70;;;;;;;;;;4971978;28;20054;-73
2022/01/15 00:59:42;;;;;;;2.55;0.80;;;;;;;;;;4972066;28;20042;-73
2022/01/15 01:02:08;;;;;;;3.17;0.82;;;;;;;;;;4972084;28;20426;-73
2022/01/15 01:04:34;;;;;;;2.83;0.70;;;;;;;;;;4972091;28;20137;-73
2022/01/15 01:07:00;;;;;;;2.50;0.52;;;;;;;;;;4972386;28;20094;-73
2022/01/15 01:09:36;;;;;;;3.78;0.70;;;;;;;;;;4972226;28;20051;-73
2022/01/15 01:12:20;;;;;;;7.25;0.75;;;;;;;;;;4971849;28;20046;-73
2022/01/15 01:20:24;;;;;;;1.80;0.55;;;;;;;;;;4971691;28;20460;-73
2022/01/15 01:22:58;;;;;;;1.73;0.60;;;;;;;;;;4971727;28;20057;-73
2022/01/15 01:25:30;;;;;;;0.98;0.43;;;;;;;;;;4971466;28;20047;-73
2022/01/15 01:28:04;;;;;;;1.48;0.30;;;;;;;;;;4971718;28;20054;-73
2022/01/15 01:30:37;;;;;;;1.38;0.32;;;;;;;;;;4971850;28;20465;-72
2022/01/15 01:33:28;;;;;;;1.38;0.30;;;;;;;;;;4971108;28;20047;-73
2022/01/15 01:41:07;;;;;;;1.05;0.50;;;;;;;;;;4971502;28;20470;-73
2022/01/15 01:46:32;;;;;;;1.20;0.30;;;;;;;;;;4971240;28;20058;-73
2022/01/15 01:48:59;;;;;;;4.50;0.60;;;;;;;;;;4970977;28;20050;-73
2022/01/15 01:51:31;;;;;;;1.58;0.40;;;;;;;;;;4971196;28;20050;-73
2022/01/15 01:53:58;;;;;;;2.58;0.50;;;;;;;;;;4969975;28;20054;-73
2022/01/15 01:56:24;;;;;;;0.70;0.32;;;;;;;;;;4970857;28;20051;-73
2022/01/15 01:58:50;;;;;;;0.60;0.40;;;;;;;;;;4970248;28;20055;-73
2022/01/15 02:01:16;;;;;;;0.73;0.40;;;;;;;;;;4970844;28;20043;-73
2022/01/15 02:03:42;;;;;;;2.25;0.50;;;;;;;;;;4971542;28;20050;-73
2022/01/15 02:06:08;;;;;;;0.93;0.40;;;;;;;;;;4970979;28;20126;-73
2022/01/15 02:08:36;;;;;;;1.67;0.50;;;;;;;;;;4970629;28;20047;-73
2022/01/15 02:11:03;;;;;;;1.20;0.50;;;;;;;;;;4971101;28;20047;-73
2022/01/15 02:13:30;;;;;;;1.27;0.50;;;;;;;;;;4971534;28;20082;-74
2022/01/15 02:15:57;;;;;;;0.98;0.50;;;;;;;;;;4971005;28;20047;-73
2022/01/15 02:18:23;;;;;;;2.28;0.60;;;;;;;;;;4970916;28;20602;-74
2022/01/15 02:23:50;;;;;;;4.75;0.70;;;;;;;;;;4969402;28;20059;-74
2022/01/15 02:26:26;;;;;;;4.13;0.57;;;;;;;;;;4970626;28;20518;-74
2022/01/15 02:28:52;;;;;;;4.32;0.50;;;;;;;;;;4970573;28;20070;-73
2022/01/15 02:31:19;;;;;;;2.80;0.50;;;;;;;;;;4970557;28;20054;-73
2022/01/15 02:33:47;;;;;;;2.53;0.40;;;;;;;;;;4970960;28;20043;-73
2022/01/15 02:36:17;;;;;;;3.47;0.40;;;;;;;;;;4969893;28;20043;-73
2022/01/15 02:38:43;;;;;;;2.50;0.50;;;;;;;;;;4968886;28;20042;-73
2022/01/15 02:41:09;;;;;;;3.67;0.50;;;;;;;;;;4970326;28;20425;-73
2022/01/15 02:43:36;;;;;;;2.35;0.60;;;;;;;;;;4970718;28;20101;-73
2022/01/15 02:48:53;;;;;;;1.00;0.30;;;;;;;;;;4970161;28;20488;-73
2022/01/15 02:51:24;;;;;;;0.65;0.40;;;;;;;;;;4970294;28;20466;-73
2022/01/15 02:53:55;;;;;;;1.58;0.50;;;;;;;;;;4970310;28;20051;-73
2022/01/15 02:56:30;;;;;;;1.55;0.68;;;;;;;;;;4968955;28;20051;-73
2022/01/15 02:58:56;;;;;;;0.63;0.30;;;;;;;;;;4970014;28;20047;-73
2022/01/15 03:01:22;;;;;;;0.38;0.38;;;;;;;;;;4970390;28;20041;-73
2022/01/15 03:03:48;;;;;;;1.48;0.50;;;;;;;;;;4970396;28;20134;-72
2022/01/15 03:06:15;;;;;;;0.30;0.30;;;;;;;;;;4970189;28;20170;-72
2022/01/15 03:08:42;;;;;;;2.25;0.55;;;;;;;;;;4969951;28;20086;-72
2022/01/15 03:11:08;;;;;;;0.50;0.40;;;;;;;;;;4970511;28;20554;-72
2022/01/15 03:13:35;;;;;;;0.60;0.40;;;;;;;;;;4970468;28;20047;-72
2022/01/15 03:16:01;;;;;;;1.60;0.40;;;;;;;;;;4970301;28;20054;-72
2022/01/15 03:18:27;;;;;;;1.48;0.40;;;;;;;;;;4969784;28;20086;-72
2022/01/15 03:20:53;;;;;;;1.40;0.50;;;;;;;;;;4970104;28;20145;-72
2022/01/15 03:23:19;;;;;;;0.60;0.50;;;;;;;;;;4970133;28;20054;-72
2022/01/15 03:25:45;;;;;;;1.13;0.60;;;;;;;;;;4970350;28;20051;-72
2022/01/15 03:28:11;;;;;;;0.95;0.50;;;;;;;;;;4968869;28;20061;-72
2022/01/15 03:30:38;;;;;;;0.70;0.40;;;;;;;;;;4969881;28;20129;-72
2022/01/15 03:33:04;;;;;;;0.93;0.40;;;;;;;;;;4969084;28;20130;-73
2022/01/15 03:35:30;;;;;;;0.25;0.20;;;;;;;;;;4969057;28;20409;-72
2022/01/15 03:37:56;;;;;;;1.65;0.30;;;;;;;;;;4969960;28;20047;-73
2022/01/15 03:40:22;;;;;;;2.90;0.55;;;;;;;;;;4968901;28;20050;-72
2022/01/15 03:42:48;;;;;;;1.73;0.60;;;;;;;;;;4969988;28;20039;-73
2022/01/15 03:45:15;;;;;;;2.42;0.30;;;;;;;;;;4969729;28;20047;-72
2022/01/15 03:47:42;;;;;;;0.68;0.47;;;;;;;;;;4968125;28;20197;-72
2022/01/15 03:50:08;;;;;;;2.45;0.50;;;;;;;;;;4972758;28;20062;-73
2022/01/15 03:52:34;;;;;;;1.58;0.45;;;;;;;;;;4971201;28;20518;-72
2022/01/15 03:55:01;;;;;;;1.92;0.50;;;;;;;;;;4972818;28;20054;-72
2022/01/15 03:57:27;;;;;;;0.40;0.40;;;;;;;;;;4972961;28;20194;-73
2022/01/15 03:59:53;;;;;;;1.55;0.40;;;;;;;;;;4972682;28;20066;-72
2022/01/15 04:02:19;;;;;;;0.88;0.50;;;;;;;;;;4972269;28;20425;-72
2022/01/15 04:04:45;;;;;;;1.00;0.55;;;;;;;;;;4972750;28;20878;-72
2022/01/15 04:07:11;;;;;;;0.77;0.40;;;;;;;;;;4972975;28;20057;-72
2022/01/15 04:09:37;;;;;;;0.68;0.30;;;;;;;;;;4973183;28;20517;-72
2022/01/15 04:12:03;;;;;;;1.83;0.38;;;;;;;;;;4973241;28;20050;-72
2022/01/15 04:14:29;;;;;;;0.52;0.30;;;;;;;;;;4973262;28;20047;-72
2022/01/15 04:16:55;;;;;;;1.83;0.55;;;;;;;;;;4972614;28;20058;-72
2022/01/15 04:19:22;;;;;;;1.08;0.30;;;;;;;;;;4972995;28;20053;-72
2022/01/15 04:21:48;;;;;;;1.33;0.35;;;;;;;;;;4973177;28;20050;-72
2022/01/15 04:24:14;;;;;;;0.55;0.32;;;;;;;;;;4972651;28;20059;-72
2022/01/15 04:26:40;;;;;;;1.63;0.40;;;;;;;;;;4972723;28;20070;-72
2022/01/15 04:29:06;;;;;;;3.85;0.40;;;;;;;;;;4972994;28;20102;-73
2022/01/15 04:31:49;;;;;;;3.20;0.50;;;;;;;;;;4971494;28;20058;-73
2022/01/15 04:34:17;;;;;;;3.08;0.40;;;;;;;;;;4972843;28;20545;-73
2022/01/15 04:36:43;;;;;;;1.85;0.40;;;;;;;;;;4971950;28;20105;-73
2022/01/15 04:39:10;;;;;;;5.40;0.52;;;;;;;;;;4971950;28;20090;-73
2022/01/15 04:41:36;;;;;;;1.20;0.50;;;;;;;;;;4972710;28;20051;-73
2022/01/15 04:44:03;;;;;;;2.88;0.47;;;;;;;;;;4971531;28;20453;-73
2022/01/15 04:46:29;;;;;;;4.57;0.55;;;;;;;;;;4972124;28;20102;-73
2022/01/15 04:48:55;;;;;;;0.55;0.30;;;;;;;;;;4971513;28;20058;-73
2022/01/15 04:51:21;;;;;;;2.13;0.50;;;;;;;;;;4972406;28;20054;-73
2022/01/15 04:53:47;;;;;;;3.45;0.50;;;;;;;;;;4972168;28;20416;-72
2022/01/15 04:56:13;;;;;;;0.80;0.38;;;;;;;;;;4971897;28;20490;-73
2022/01/15 04:58:39;;;;;;;1.70;0.63;;;;;;;;;;4972413;28;20137;-73
2022/01/15 05:01:05;;;;;;;5.22;0.60;;;;;;;;;;4971439;28;20121;-73
2022/01/15 05:03:33;;;;;;;0.90;0.38;;;;;;;;;;4972174;28;20109;-73
2022/01/15 05:05:59;;;;;;;0.30;0.30;;;;;;;;;;4971673;28;20251;-73
2022/01/15 05:08:25;;;;;;;2.15;0.40;;;;;;;;;;4972370;28;20058;-73
2022/01/15 05:10:53;;;;;;;1.83;0.45;;;;;;;;;;4972100;28;20047;-73
2022/01/15 05:13:26;;;;;;;3.55;0.77;;;;;;;;;;4971977;28;20051;-73
2022/01/15 05:15:52;;;;;;;3.70;0.40;;;;;;;;;;4971906;28;20050;-73
2022/01/15 05:18:18;;;;;;;0.90;0.40;;;;;;;;;;4971290;28;20049;-73
2022/01/15 05:20:45;;;;;;;1.05;0.52;;;;;;;;;;4970541;28;20043;-73
2022/01/15 05:23:11;;;;;;;0.75;0.45;;;;;;;;;;4971774;28;20061;-73
2022/01/15 05:25:38;;;;;;;0.95;0.40;;;;;;;;;;4971895;28;20133;-72
2022/01/15 05:28:04;;;;;;;2.25;0.57;;;;;;;;;;4971331;28;20042;-72
2022/01/15 05:30:32;;;;;;;0.95;0.40;;;;;;;;;;4972113;28;20043;-73
2022/01/15 05:32:59;;;;;;;1.10;0.47;;;;;;;;;;4971810;28;20085;-73
2022/01/15 05:35:28;;;;;;;0.63;0.35;;;;;;;;;;4971645;28;20429;-73
2022/01/15 05:37:55;;;;;;;0.60;0.30;;;;;;;;;;4971285;28;20664;-74
2022/01/15 05:40:21;;;;;;;1.40;0.47;;;;;;;;;;4971635;28;20055;-73
2022/01/15 05:42:47;;;;;;;1.55;0.60;;;;;;;;;;4971563;28;20572;-72
2022/01/15 05:45:13;;;;;;;1.40;0.50;;;;;;;;;;4971392;28;20505;-73
2022/01/15 05:47:39;;;;;;;1.98;0.57;;;;;;;;;;4971473;28;20069;-74
2022/01/15 05:50:06;;;;;;;0.85;0.40;;;;;;;;;;4971257;28;20046;-73
2022/01/15 05:52:32;;;;;;;0.80;0.50;;;;;;;;;;4970999;28;20047;-73
2022/01/15 05:54:58;;;;;;;2.78;0.57;;;;;;;;;;4971280;28;20063;-73
2022/01/15 05:57:24;;;;;;;1.38;0.40;;;;;;;;;;4971156;28;20061;-73
2022/01/15 05:59:53;;;;;;;0.73;0.52;;;;;;;;;;4970840;28;20228;-73
2022/01/15 06:02:19;;;;;;;1.45;0.73;;;;;;;;;;4969991;28;20054;-73
2022/01/15 06:04:46;;;;;;;1.67;0.68;;;;;;;;;;4971420;28;20042;-73
2022/01/15 06:07:12;;;;;;;0.85;0.40;;;;;;;;;;4971109;28;20054;-73
2022/01/15 06:09:38;;;;;;;0.63;0.45;;;;;;;;;;4971270;28;20133;-73
2022/01/15 06:12:04;;;;;;;1.70;0.60;;;;;;;;;;4970716;28;20039;-73
2022/01/15 06:14:31;;;;;;;1.17;0.40;;;;;;;;;;4970549;28;20047;-73
2022/01/15 06:16:58;;;;;;;1.45;0.50;;;;;;;;;;4969733;28;20061;-73
2022/01/15 06:19:24;;;;;;;3.95;0.55;;;;;;;;;;4970581;28;20564;-73
2022/01/15 06:21:50;;;;;;;1.35;0.68;;;;;;;;;;4971173;28;20043;-73
2022/01/15 06:24:16;;;;;;;0.70;0.50;;;;;;;;;;4970313;28;20101;-73
2022/01/15 06:26:42;;;;;;;0.77;0.43;;;;;;;;;;4970559;28;20084;-73
2022/01/15 06:29:08;;;;;;;1.38;0.70;;;;;;;;;;4970753;28;20531;-73
2022/01/15 06:31:34;;;;;;;2.08;0.45;;;;;;;;;;4970647;28;20049;-76
2022/01/15 06:34:01;;;;;;;0.88;0.40;;;;;;;;;;4969887;28;20058;-75
2022/01/15 06:36:27;;;;;;;1.27;0.50;;;;;;;;;;4969656;28;20069;-75
2022/01/15 06:38:53;;;;;;;3.15;0.60;;;;;;;;;;4970966;28;20073;-75
2022/01/15 06:41:20;;;;;;;2.00;0.43;;;;;;;;;;4970558;28;20865;-75
2022/01/15 06:43:46;;;;;;;5.03;0.70;;;;;;;;;;4969117;28;20425;-75
2022/01/15 06:46:12;;;;;;;0.98;0.43;;;;;;;;;;4970587;28;20071;-75
2022/01/15 06:48:38;;;;;;;0.65;0.40;;;;;;;;;;4970532;28;20055;-75
2022/01/15 06:51:04;;;;;;;0.88;0.30;;;;;;;;;;4970124;28;20075;-75
2022/01/15 06:53:30;;;;;;;0.63;0.50;;;;;;;;;;4970241;28;20082;-75
2022/01/15 06:55:57;;;;;;;0.88;0.50;;;;;;;;;;4970345;28;20089;-75
2022/01/15 06:58:23;;;;;;;2.95;0.70;;;;;;;;;;4969092;28;20055;-76
2022/01/15 07:00:50;;;;;;;1.70;0.98;;;;;;;;;;4970486;28;20050;-76
2022/01/15 07:03:16;;;;;;;1.02;0.47;;;;;;;;;;4970481;28;20109;-75
2022/01/15 07:05:42;;;;;;;1.48;0.60;;;;;;;;;;4969095;28;20047;-76
2022/01/15 07:08:08;;;;;;;1.40;0.50;;;;;;;;;;4970109;28;20101;-75
2022/01/15 07:10:38;;;;;;;1.73;0.57;;;;;;;;;;4970694;28;20035;-74
2022/01/15 07:13:04;;;;;;;2.75;0.60;;;;;;;;;;4970288;28;20050;-75
2022/01/15 07:15:30;;;;;;;1.08;0.60;;;;;;;;;;4964454;28;20405;-74
2022/01/15 07:17:59;;;;;;;1.30;0.60;;;;;;;;;;4970196;28;20043;-74
2022/01/15 07:20:25;;;;;;;1.25;0.65;;;;;;;;;;4970405;28;20051;-74
2022/01/15 07:22:51;;;;;;;2.05;0.93;;;;;;;;;;4974142;28;20227;-74
2022/01/15 07:25:17;;;;;;;0.70;0.50;;;;;;;;;;4974103;28;20109;-74
2022/01/15 07:27:43;;;;;;;1.95;0.47;;;;;;;;;;4973754;28;20050;-74
2022/01/15 07:30:10;;;;;;;1.33;0.60;;;;;;;;;;4973820;28;20047;-74
2022/01/15 07:32:37;;;;;;;0.95;0.50;;;;;;;;;;4973937;28;20053;-74
2022/01/15 07:35:03;;;;;;;1.27;0.60;;;;;;;;;;4973681;28;20045;-76
2022/01/15 07:37:30;;;;;;;1.05;0.50;;;;;;;;;;4973751;28;20474;-76
2022/01/15 07:39:56;;;;;;;0.77;0.50;;;;;;;;;;4956142;28;20078;-75
2022/01/15 07:42:23;;;;;;;0.65;0.40;;;;;;;;;;4972405;28;20046;-76
2022/01/15 07:44:49;;;;;;;1.00;0.43;;;;;;;;;;4972271;28;20553;-75
2022/01/15 07:47:15;;;;;;;0.85;0.40;;;;;;;;;;4973270;28;20054;-75
2022/01/15 07:49:41;;;;;;;1.77;0.70;;;;;;;;;;4973734;28;20076;-75
2022/01/15 07:52:07;;;;;;;1.45;0.60;;;;;;;;;;4972286;28;20058;-76
2022/01/15 07:54:33;;;;;;;0.60;0.50;;;;;;;;;;4971889;28;20065;-75
2022/01/15 07:56:59;;;;;;;1.30;0.60;;;;;;;;;;4972274;28;20043;-75
2022/01/15 07:59:26;;;;;;;1.23;0.60;;;;;;;;;;4973391;28;20050;-76
2022/01/15 08:01:52;;;;;;;1.35;0.60;;;;;;;;;;4973421;28;20050;-76
2022/01/15 08:04:18;;;;;;;1.08;0.60;;;;;;;;;;4973462;28;20130;-76
2022/01/15 08:06:44;;;;;;;1.55;1.05;;;;;;;;;;4973176;28;20051;-76
2022/01/15 08:09:10;;;;;;;1.02;0.60;;;;;;;;;;4973205;28;20087;-75
2022/01/15 08:11:36;;;;;;;0.90;0.60;;;;;;;;;;4971883;28;20050;-74
2022/01/15 08:14:02;;;;;;;1.02;0.52;;;;;;;;;;4973284;28;20053;-76
2022/01/15 08:16:28;;;;;;;4.03;0.70;;;;;;;;;;4972737;28;20047;-77
2022/01/15 08:18:54;;;;;;;5.85;0.70;;;;;;;;;;4972648;28;20536;-76
2022/01/15 08:21:20;;;;;;;9.73;1.20;;;;;;;;;;4973120;28;20051;-76
2022/01/15 08:23:46;;;;;;;1.70;0.50;;;;;;;;;;4973199;28;20050;-76
2022/01/15 08:26:12;;;;;;;1.70;0.52;;;;;;;;;;4972968;28;20509;-74
2022/01/15 08:28:38;;;;;;;2.28;0.70;;;;;;;;;;4971974;28;20051;-78
2022/01/15 08:31:05;;;;;;;0.77;0.50;;;;;;;;;;4971923;28;20043;-77
2022/01/15 08:33:31;;;;;;;2.88;0.60;;;;;;;;;;4972326;28;20516;-78
2022/01/15 08:35:57;;;;;;;1.83;0.50;;;;;;;;;;4962504;28;20125;-79
2022/01/15 08:38:24;;;;;;;0.90;0.60;;;;;;;;;;4972428;28;20504;-75
2022/01/15 08:40:50;;;;;;;2.20;0.63;;;;;;;;;;4973133;28;20394;-76
2022/01/15 08:43:16;;;;;;;1.13;0.50;;;;;;;;;;4972573;28;20046;-75
2022/01/15 08:45:43;;;;;;;2.05;0.70;;;;;;;;;;4972304;28;20429;-77
2022/01/15 08:48:10;;;;;;;1.25;0.50;;;;;;;;;;4972231;28;20125;-80
2022/01/15 08:50:36;;;;;;;1.67;0.47;;;;;;;;;;4972122;28;20054;-78
2022/01/15 08:53:06;;;;;;;1.50;0.60;;;;;;;;;;4972694;28;20042;-76
2022/01/15 08:55:33;;;;;;;1.45;0.57;;;;;;;;;;4971639;28;20129;-78
2022/01/15 08:58:00;;;;;;;0.90;0.40;;;;;;;;;;4955731;28;20097;-77
2022/01/15 09:00:28;;;;;;;1.10;0.43;;;;;;;;;;4971758;28;20047;-77
2022/01/15 09:02:55;;;;;;;1.58;0.60;;;;;;;;;;4971993;28;20057;-76
2022/01/15 09:05:21;;;;;;;0.82;0.40;;;;;;;;;;4972836;28;20054;-77
2022/01/15 09:07:47;;;;;;;1.05;0.60;;;;;;;;;;4971813;28;20145;-78
2022/01/15 09:10:13;;;;;;;0.65;0.40;;;;;;;;;;4972568;28;20089;-79
2022/01/15 09:12:40;;;;;;;1.13;0.43;;;;;;;;;;4971037;28;20083;-79
2022/01/15 09:15:06;;;;;;;0.88;0.50;;;;;;;;;;4954336;28;20543;-77
2022/01/15 09:17:32;;;;;;;1.27;0.50;;;;;;;;;;4972089;28;20050;-77
2022/01/15 09:19:58;;;;;;;1.45;0.40;;;;;;;;;;4970823;28;20053;-76
2022/01/15 09:22:25;;;;;;;1.33;0.50;;;;;;;;;;4972176;28;20089;-77
2022/01/15 09:24:51;;;;;;;3.58;0.50;;;;;;;;;;4970958;28;20114;-78
2022/01/15 09:30:13;;;;;;;1.77;0.60;;;;;;;;;;4971835;28;20094;-75
2022/01/15 09:32:59;;;;;;;1.10;0.50;;;;;;;;;;4971832;28;20047;-78
2022/01/15 09:35:27;;;;;;;1.38;0.60;;;;;;;;;;4970278;28;20054;-76
2022/01/15 09:37:54;;;;;;;1.42;0.50;;;;;;;;;;4971550;28;20102;-76
2022/01/15 09:40:21;;;;;;;1.40;0.40;;;;;;;;;;4971768;28;20051;-77
2022/01/15 09:42:49;;;;;;;1.25;0.50;;;;;;;;;;4971944;28;20478;-78
2022/01/15 09:45:15;;;;;;;0.98;0.40;;;;;;;;;;4970001;28;20121;-77
2022/01/15 09:47:42;;;;;;;1.30;0.50;;;;;;;;;;4970776;28;20062;-76
2022/01/15 09:50:10;;;;;;;1.00;0.47;;;;;;;;;;4971541;28;20061;-77
2022/01/15 09:52:37;;;;;;;2.80;0.70;;;;;;;;;;4969870;28;20046;-78
2022/01/15 09:55:05;;;;;;;2.10;0.70;;;;;;;;;;4970631;28;20290;-77
2022/01/15 09:57:31;;;;;;;1.80;0.70;;;;;;;;;;4968905;28;20047;-76
2022/01/15 09:59:57;;;;;;;2.05;0.63;;;;;;;;;;4969812;28;20061;-76
2022/01/15 10:02:23;;;;;;;1.90;0.65;;;;;;;;;;4970706;28;20065;-75
2022/01/15 10:04:49;;;;;;;1.83;0.68;;;;;;;;;;4969765;28;20093;-75
2022/01/15 10:07:17;;;;;;;1.58;0.63;;;;;;;;;;4969175;28;20564;-78
2022/01/15 10:09:45;;;;;;;2.95;0.82;;;;;;;;;;4969837;28;20129;-78
2022/01/15 10:12:12;;;;;;;2.70;0.80;;;;;;;;;;4970435;28;20055;-79
2022/01/15 10:14:42;;;;;;;3.15;0.68;;;;;;;;;;4969499;28;20043;-77
2022/01/15 10:17:22;;;;;;;1.83;0.80;;;;;;;;;;4970026;28;20578;-77
2022/01/15 10:19:48;;;;;;;5.20;1.35;;;;;;;;;;4958834;28;20066;-75
2022/01/15 10:22:17;;;;;;;1.95;0.60;;;;;;;;;;4968663;28;20054;-76
2022/01/15 10:24:50;;;;;;;1.88;0.70;;;;;;;;;;4970482;28;20167;-74
2022/01/15 10:27:20;;;;;;;1.52;0.88;;;;;;;;;;4968784;28;20062;-75
2022/01/15 10:29:53;;;;;;;1.73;0.80;;;;;;;;;;4970201;28;20067;-74
2022/01/15 10:32:19;;;;;;;1.35;0.60;;;;;;;;;;4970046;28;20042;-75
2022/01/15 10:34:45;;;;;;;1.05;0.55;;;;;;;;;;4969877;28;20066;-76
2022/01/15 10:37:16;;;;;;;2.60;0.80;;;;;;;;;;4968926;28;20457;-76
2022/01/15 10:40:00;;;;;;;2.08;0.60;;;;;;;;;;4969651;28;20121;-78
2022/01/15 10:42:27;;;;;;;1.42;0.80;;;;;;;;;;4970168;28;20090;-76
2022/01/15 10:44:53;;;;;;;0.90;0.60;;;;;;;;;;4970252;28;20059;-77
2022/01/15 10:47:21;;;;;;;2.47;0.70;;;;;;;;;;4969447;28;20146;-76
2022/01/15 10:49:47;;;;;;;2.45;0.77;;;;;;;;;;4969627;28;20054;-77
2022/01/15 10:52:17;;;;;;;2.45;0.80;;;;;;;;;;4969432;28;20393;-76
2022/01/15 10:54:43;;;;;;;;;;;;;;;;;;4970027;28;20105;-76
2022/01/15 10:57:09;;;;;;;3.08;0.90;;;;;;;;;;4952136;28;19926;-74
2022/01/15 10:59:36;;;;;;;1.80;1.00;;;;;;;;;;4973009;28;20053;-73
2022/01/15 11:02:20;;;;;;;1.30;0.70;;;;;;;;;;4973659;28;20047;-77
2022/01/15 11:04:46;;;;;;;1.83;1.10;;;;;;;;;;4981551;28;20084;-78
2022/01/15 11:07:15;;;;;;;1.52;0.90;;;;;;;;;;4993724;28;20053;-76
2022/01/15 11:09:45;;;;;;;1.50;0.98;;;;;;;;;;4993411;28;20381;-78
2022/01/15 11:12:11;;;;;;;3.10;1.00;;;;;;;;;;4991966;28;20520;-75
2022/01/15 11:14:38;;;;;;;3.25;0.80;;;;;;;;;;4991906;28;20049;-75
2022/01/15 11:17:04;;;;;;;1.98;0.95;;;;;;;;;;4991508;28;20140;-74
2022/01/15 11:19:31;;;;;;;2.95;1.02;;;;;;;;;;4991512;28;20121;-72
2022/01/15 11:21:59;;;;;;;5.38;1.42;;;;;;;;;;4993242;28;20054;-74
2022/01/15 11:24:25;;;;;;;1.88;1.10;;;;;;;;;;4993047;28;20074;-74
2022/01/15 11:26:58;;;;;;;2.20;1.30;;;;;;;;;;4991786;28;20058;-72
2022/01/15 11:29:25;;;;;;;5.15;1.20;;;;;;;;;;4993070;28;20165;-72
2022/01/15 11:31:56;;;;;;;2.97;1.10;;;;;;;;;;4991162;28;20129;-73
2022/01/15 11:34:23;;;;;;;2.17;1.30;;;;;;;;;;4991826;28;20054;-73
2022/01/15 11:36:50;;;;;;;4.97;1.30;;;;;;;;;;4991814;28;20054;-72
2022/01/15 11:39:29;;;;;;;2.20;1.30;;;;;;;;;;4991364;28;20046;-72
2022/01/15 11:41:55;;;;;;;4.13;1.70;;;;;;;;;;4992851;28;20475;-72
2022/01/15 11:44:35;;;;;;;2.58;1.40;;;;;;;;;;4992379;28;20053;-73
2022/01/15 11:47:12;;;;;;;2.60;1.50;;;;;;;;;;4992496;28;20054;-73
2022/01/15 11:49:45;;;;;;;2.45;1.35;;;;;;;;;;4991553;28;20054;-73
2022/01/15 11:52:13;;;;;;;3.08;1.60;;;;;;;;;;4992482;28;20042;-73
2022/01/15 11:54:40;;;;;;;2.90;1.83;;;;;;;;;;4992779;28;20094;-73
2022/01/15 11:57:26;;;;;;;2.42;1.60;;;;;;;;;;4991722;28;20046;-72
2022/01/15 11:59:53;;;;;;;2.53;1.50;;;;;;;;;;4992614;28;20527;-74
2022/01/15 12:02:45;;;;;;;3.05;1.70;;;;;;;;;;4991325;28;20089;-74
2022/01/15 12:05:14;;;;;;;2.65;1.63;;;;;;;;;;4976656;28;20058;-74
2022/01/15 12:07:40;;;;;;;2.55;1.63;;;;;;;;;;4992477;28;20049;-75
2022/01/15 12:10:06;;;;;;;2.88;1.70;;;;;;;;;;4991296;28;20133;-74
2022/01/15 12:12:40;;;;;;;5.75;2.10;;;;;;;;;;4992149;28;20105;-73
2022/01/15 12:15:09;;;;;;;2.88;1.77;;;;;;;;;;4990621;28;20426;-72
2022/01/15 12:17:35;;;;;;;2.17;1.40;;;;;;;;;;4992019;28;20100;-75
2022/01/15 12:20:04;;;;;;;2.70;1.77;;;;;;;;;;4991731;28;20077;-74
2022/01/15 12:22:49;;;;;;;2.75;1.60;;;;;;;;;;4991190;28;20405;-75
2022/01/15 12:25:18;;;;;;;3.00;2.10;;;;;;;;;;4992135;28;20473;-73
2022/01/15 12:27:45;;;;;;;3.63;2.20;;;;;;;;;;4991992;28;20046;-72
2022/01/15 12:30:16;;;;;;;4.50;2.20;;;;;;;;;;4991497;28;20046;-73
2022/01/15 12:32:44;;;;;;;4.32;2.08;;;;;;;;;;4990880;28;20579;-72
2022/01/15 12:35:15;;;;;;;4.28;2.50;;;;;;;;;;4991554;28;20082;-74
2022/01/15 12:37:54;;;;;;;5.75;2.80;;;;;;;;;;4990920;28;20137;-72
2022/01/15 12:40:22;;;;;;;6.30;2.78;;;;;;;;;;4991428;28;20120;-73
2022/01/15 12:43:02;;;;;;;3.78;2.47;;;;;;;;;;4986842;28;20126;-72
2022/01/15 12:45:28;;;;;;;8.32;2.20;;;;;;;;;;4952720;28;20465;-71
2022/01/15 12:47:55;;;;;;;5.85;2.45;;;;;;;;;;4976280;28;20390;-71
2022/01/15 12:50:22;;;;;;;6.85;2.30;;;;;;;;;;4988471;28;20529;-71
2022/01/15 12:52:57;;;;;;;3.22;2.10;;;;;;;;;;4974010;28;20524;-72
2022/01/15 12:55:28;;;;;;;4.18;2.85;;;;;;;;;;4971344;28;20645;-73
2022/01/15 12:57:54;;;;;;;4.00;2.55;;;;;;;;;;4972689;28;20056;-72
2022/01/15 13:00:25;;;;;;;7.53;2.60;;;;;;;;;;4970373;28;20497;-72
2022/01/15 13:03:05;;;;;;;7.20;2.38;;;;;;;;;;4971835;28;20469;-71
2022/01/15 13:05:32;;;;;;;6.47;2.60;;;;;;;;;;4970285;28;20058;-72
2022/01/15 13:08:10;;;;;;;4.55;2.33;;;;;;;;;;4971810;28;20043;-72
2022/01/15 13:10:58;;;;;;;4.65;2.70;;;;;;;;;;4971401;28;20413;-73
2022/01/15 13:13:30;;;;;;;6.30;2.65;;;;;;;;;;4971606;28;20051;-74
2022/01/15 13:16:00;;;;;;;4.13;2.15;;;;;;;;;;4971830;28;20133;-73
2022/01/15 13:18:29;;;;;;;4.45;2.40;;;;;;;;;;4971415;28;20494;-73
2022/01/15 13:20:55;;;;;;;;;;;;;;;;;;4971065;28;20054;-73
2022/01/15 13:23:24;;;;;;;5.97;2.60;;;;;;;;;;4971592;28;20300;-74
2022/01/15 13:25:51;;;;;;;6.90;2.37;;;;;;;;;;4971209;28;20046;-73
2022/01/15 13:28:17;;;;;;;5.25;2.45;;;;;;;;;;4971561;28;20290;-72
2022/01/15 13:30:46;;;;;;;3.60;2.35;;;;;;;;;;4967499;28;20042;-73
2022/01/15 13:33:12;;;;;;;4.13;2.72;;;;;;;;;;4969424;28;20058;-76
2022/01/15 13:35:40;;;;;;;4.43;2.38;;;;;;;;;;4970200;28;20517;-76
2022/01/15 13:38:08;;;;;;;5.75;2.22;;;;;;;;;;4971199;28;20137;-74
2022/01/15 13:40:38;;;;;;;10.75;2.80;;;;;;;;;;4971452;28;20043;-73
2022/01/15 13:43:06;;;;;;;10.00;2.78;;;;;;;;;;4969856;28;20109;-74
2022/01/15 13:45:34;;;;;;;6.78;3.22;;;;;;;;;;4970596;28;20059;-73
2022/01/15 13:48:09;;;;;;;9.63;2.90;;;;;;;;;;4978006;28;20042;-72
2022/01/15 13:53:30;;;;;;;5.13;3.22;;;;;;;;;;4990066;28;20054;-73
2022/01/15 13:56:09;;;;;;;6.95;2.92;;;;;;;;;;4991302;28;20129;-73
2022/01/15 13:58:35;;;;;;;4.85;2.72;;;;;;;;;;4991684;28;20047;-72
2022/01/15 14:01:17;;;;;;;4.40;2.70;;;;;;;;;;4990584;28;20046;-72
2022/01/15 14:03:43;;;;;;;6.57;2.83;;;;;;;;;;4974567;28;20046;-74
2022/01/15 14:06:09;;;;;;;5.28;3.25;;;;;;;;;;4991787;28;20499;-74
2022/01/15 14:08:35;;;;;;;9.18;3.10;;;;;;;;;;4990492;28;20050;-74
2022/01/15 14:11:08;;;;;;;7.97;3.45;;;;;;;;;;4990039;28;20074;-74
2022/01/15 14:13:34;;;;;;;6.13;3.35;;;;;;;;;;4990587;28;20050;-74
2022/01/15 14:16:00;;;;;;;4.97;3.30;;;;;;;;;;4972892;28;20150;-74
2022/01/15 14:18:30;;;;;;;5.90;3.28;;;;;;;;;;4989515;28;20046;-74
2022/01/15 14:23:33;;;;;;;9.07;3.22;;;;;;;;;;4989846;28;20050;-74
2022/01/15 14:26:14;;;;;;;4.97;3.38;;;;;;;;;;4989836;28;20062;-71
2022/01/15 14:28:40;;;;;;;5.70;3.55;;;;;;;;;;4989433;28;20141;-71
2022/01/15 14:31:06;;;;;;;6.30;3.58;;;;;;;;;;4989531;28;20053;-72
2022/01/15 14:33:32;;;;;;;6.70;3.63;;;;;;;;;;4988248;28;20042;-72
2022/01/15 14:35:58;;;;;;;5.10;3.47;;;;;;;;;;4989692;28;20046;-71
2022/01/15 14:38:24;;;;;;;7.80;3.42;;;;;;;;;;4989691;28;20046;-72
2022/01/15 14:40:51;;;;;;;6.60;3.42;;;;;;;;;;4988270;28;20042;-69
2022/01/15 14:43:17;;;;;;;5.57;3.33;;;;;;;;;;4989036;28;20050;-72
2022/01/15 14:45:43;;;;;;;4.18;3.15;;;;;;;;;;4989608;28;20522;-72
2022/01/15 14:48:09;;;;;;;4.72;3.47;;;;;;;;;;4988981;28;20067;-72
2022/01/15 14:50:35;;;;;;;6.18;3.33;;;;;;;;;;4989672;28;20050;-71
2022/01/15 14:53:01;;;;;;;4.90;3.70;;;;;;;;;;4989196;28;20409;-72
2022/01/15 14:55:27;;;;;;;4.05;3.10;;;;;;;;;;4988819;28;20050;-71
2022/01/15 14:57:53;;;;;;;4.63;3.38;;;;;;;;;;4989515;28;20046;-72
2022/01/15 15:00:20;;;;;;;7.95;3.50;;;;;;;;;;4989257;28;20424;-72
2022/01/15 15:02:46;;;;;;;6.20;3.72;;;;;;;;;;4989136;28;20062;-73
2022/01/15 15:05:12;;;;;;;4.97;3.85;;;;;;;;;;4988700;28;20042;-72
2022/01/15 15:07:38;;;;;;;4.57;3.45;;;;;;;;;;4989249;28;20515;-73
2022/01/15 15:10:06;;;;;;;5.50;3.70;;;;;;;;;;4988949;28;20101;-72
2022/01/15 15:12:39;;;;;;;5.82;3.95;;;;;;;;;;4989629;28;20043;-71
2022/01/15 15:15:06;;;;;;;5.25;3.70;;;;;;;;;;4988722;28;20191;-73